Terminal Aerodrome Forecast
Issued by NWS

Home | Current Version | Previous Version | Text Only | Print | Product List | Glossary On
Versions: 1 2 3 4 5 6 7 8 9 10 11 12 13 14 15 16 17 18 19 20 21 22 23 24 25
000
FTUS42 KMFL 191733
TAFOPF
TAF
KOPF 191733Z 1918/2018 08010KT P6SM VCSH SCT030 BKN050
      TEMPO 1918/1922 SHRA SCT025
     FM200000 VRB03KT P6SM FEW025 SCT070
     FM201500 08012KT P6SM BKN100
     FM201700 08015G20KT P6SM BKN050=

USA.gov is the U.S. government's official web portal to all federal, state and local government web resources and services.